Time;durP1;ratioP1;P1;durP2;ratioP2;P2;SDS_P1;SDS_P2;PMS_P1;PMS_P2;Temp;Humidity;BMP_temperature;BMP_pressure;BME280_temperature;BME280_humidity;BME280_pressure;Samples;Min_cycle;Max_cycle;Signal;HPM_P1;HPM_P2
2021/04/04 00:02:05;;;;;;;6.65;3.20;;;;;;;;;;5092213;28;20625;-73
2021/04/04 00:04:31;;;;;;;5.05;3.85;;;;;;;;;;5092570;28;20669;-70
2021/04/04 00:06:58;;;;;;;7.53;3.55;;;;;;;;;;5091684;28;20232;-72
2021/04/04 00:09:25;;;;;;;7.47;2.88;;;;;;;;;;5092547;28;20646;-71
2021/04/04 00:11:51;;;;;;;3.97;3.00;;;;;;;;;;5092512;28;20332;-71
2021/04/04 00:14:18;;;;;;;7.30;3.95;;;;;;;;;;5091765;28;20253;-71
2021/04/04 00:16:44;;;;;;;8.15;4.45;;;;;;;;;;5091985;28;20199;-72
2021/04/04 00:19:10;;;;;;;6.70;3.72;;;;;;;;;;5091135;28;20243;-71
2021/04/04 00:21:36;;;;;;;7.35;3.33;;;;;;;;;;5091670;28;20249;-72
2021/04/04 00:24:03;;;;;;;8.15;4.07;;;;;;;;;;5092129;28;20239;-72
2021/04/04 00:26:29;;;;;;;6.15;3.05;;;;;;;;;;5091821;28;20259;-71
2021/04/04 00:28:55;;;;;;;5.00;4.57;;;;;;;;;;5091530;28;20195;-70
2021/04/04 00:31:23;;;;;;;11.15;3.90;;;;;;;;;;5091376;28;20212;-72
2021/04/04 00:33:49;;;;;;;4.80;3.20;;;;;;;;;;5092362;28;20586;-71
2021/04/04 00:36:15;;;;;;;14.73;3.85;;;;;;;;;;5095298;28;20621;-71
2021/04/04 00:38:41;;;;;;;4.97;3.75;;;;;;;;;;5095458;28;20713;-71
2021/04/04 00:41:07;;;;;;;7.63;4.35;;;;;;;;;;5095835;28;20561;-71
2021/04/04 00:43:33;;;;;;;8.45;4.03;;;;;;;;;;5095052;28;20209;-71
2021/04/04 00:45:59;;;;;;;5.78;3.78;;;;;;;;;;5094859;28;20215;-71
2021/04/04 00:48:27;;;;;;;8.32;4.47;;;;;;;;;;5095682;28;20636;-71
2021/04/04 00:50:53;;;;;;;8.38;5.30;;;;;;;;;;5095143;28;20631;-72
2021/04/04 00:53:19;;;;;;;6.60;3.55;;;;;;;;;;5095242;28;20638;-71
2021/04/04 00:55:45;;;;;;;14.35;5.82;;;;;;;;;;5095122;28;20200;-72
2021/04/04 00:58:11;;;;;;;7.55;4.50;;;;;;;;;;5094709;28;20203;-72
2021/04/04 01:00:37;;;;;;;9.45;4.18;;;;;;;;;;5094887;28;20207;-71
2021/04/04 01:03:04;;;;;;;5.30;3.65;;;;;;;;;;5094505;28;20191;-71
2021/04/04 01:05:34;;;;;;;4.28;3.00;;;;;;;;;;5094558;28;20231;-72
2021/04/04 01:08:00;;;;;;;8.57;4.47;;;;;;;;;;5094886;28;20211;-70
2021/04/04 01:10:28;;;;;;;6.28;3.70;;;;;;;;;;5094963;28;20570;-71
2021/04/04 01:13:00;;;;;;;8.82;3.38;;;;;;;;;;5094763;28;20253;-71
2021/04/04 01:15:28;;;;;;;6.47;3.38;;;;;;;;;;5095048;28;20682;-71
2021/04/04 01:17:56;;;;;;;7.18;4.10;;;;;;;;;;5094885;28;20265;-71
2021/04/04 01:20:25;;;;;;;6.18;3.35;;;;;;;;;;5095262;28;20265;-70
2021/04/04 01:23:14;;;;;;;7.53;3.90;;;;;;;;;;5094779;28;20200;-72
2021/04/04 01:25:44;;;;;;;5.53;3.80;;;;;;;;;;5094542;28;20669;-71
2021/04/04 01:28:14;;;;;;;6.25;2.72;;;;;;;;;;5094923;28;20973;-70
2021/04/04 01:30:42;;;;;;;4.50;3.25;;;;;;;;;;5094493;28;20655;-70
2021/04/04 01:33:10;;;;;;;6.82;3.75;;;;;;;;;;5094368;28;20727;-70
2021/04/04 01:35:37;;;;;;;5.95;2.90;;;;;;;;;;5094063;28;20241;-70
2021/04/04 01:38:10;;;;;;;5.40;3.22;;;;;;;;;;5094353;28;20715;-70
2021/04/04 01:40:37;;;;;;;7.72;3.85;;;;;;;;;;5094493;28;20607;-71
2021/04/04 01:43:04;;;;;;;7.18;4.00;;;;;;;;;;5094081;28;20296;-71
2021/04/04 01:45:31;;;;;;;7.50;4.95;;;;;;;;;;5093055;28;20723;-71
2021/04/04 01:47:58;;;;;;;5.70;3.38;;;;;;;;;;5093959;28;20331;-71
2021/04/04 01:50:25;;;;;;;9.63;3.63;;;;;;;;;;5093847;28;20687;-71
2021/04/04 01:52:51;;;;;;;11.35;4.35;;;;;;;;;;5093783;28;20201;-70
2021/04/04 01:55:18;;;;;;;8.35;4.72;;;;;;;;;;5093894;28;20194;-71
2021/04/04 01:57:45;;;;;;;8.50;4.60;;;;;;;;;;5094333;28;20207;-71
2021/04/04 02:00:12;;;;;;;10.13;4.65;;;;;;;;;;5093635;28;20205;-72
2021/04/04 02:02:40;;;;;;;11.55;4.85;;;;;;;;;;5093483;28;20240;-70
2021/04/04 02:05:07;;;;;;;11.65;3.95;;;;;;;;;;5093645;28;20604;-71
2021/04/04 02:07:34;;;;;;;8.38;4.15;;;;;;;;;;5093455;28;20548;-71
2021/04/04 02:10:00;;;;;;;9.15;4.63;;;;;;;;;;5093371;28;20204;-71
2021/04/04 02:12:27;;;;;;;8.98;3.60;;;;;;;;;;5093368;28;20211;-72
2021/04/04 02:14:53;;;;;;;9.95;4.18;;;;;;;;;;5093951;28;20188;-71
2021/04/04 02:17:20;;;;;;;15.30;5.20;;;;;;;;;;5093433;28;20203;-71
2021/04/04 02:19:47;;;;;;;9.45;4.50;;;;;;;;;;5093271;28;20190;-70
2021/04/04 02:22:13;;;;;;;8.77;4.20;;;;;;;;;;5093650;28;20207;-70
2021/04/04 02:24:40;;;;;;;6.20;3.60;;;;;;;;;;5093175;28;20285;-70
2021/04/04 02:27:06;;;;;;;5.75;3.83;;;;;;;;;;5093529;28;20273;-71
2021/04/04 02:29:32;;;;;;;5.50;3.92;;;;;;;;;;5093894;28;20563;-70
2021/04/04 02:31:59;;;;;;;9.55;3.70;;;;;;;;;;5093838;28;20282;-70
2021/04/04 02:34:32;;;;;;;6.93;4.22;;;;;;;;;;5094247;28;20235;-71
2021/04/04 02:36:59;;;;;;;4.20;3.10;;;;;;;;;;5093172;28;20234;-71
2021/04/04 02:39:27;;;;;;;10.00;5.15;;;;;;;;;;5093823;28;20682;-70
2021/04/04 02:41:53;;;;;;;4.82;3.75;;;;;;;;;;5093439;28;20279;-70
2021/04/04 02:44:20;;;;;;;4.43;3.35;;;;;;;;;;5093142;28;20204;-71
2021/04/04 02:46:48;;;;;;;7.63;4.43;;;;;;;;;;5093208;28;20224;-71
2021/04/04 02:49:15;;;;;;;6.32;3.28;;;;;;;;;;5093326;28;20240;-72
2021/04/04 02:51:43;;;;;;;7.72;3.90;;;;;;;;;;5092731;28;20209;-71
2021/04/04 02:54:15;;;;;;;8.85;3.60;;;;;;;;;;5092891;28;20196;-71
2021/04/04 02:56:42;;;;;;;7.65;3.95;;;;;;;;;;5092378;28;20188;-71
2021/04/04 02:59:11;;;;;;;7.18;4.45;;;;;;;;;;5092750;28;20207;-71
2021/04/04 03:01:39;;;;;;;6.30;3.95;;;;;;;;;;5093347;28;20215;-71
2021/04/04 03:04:05;;;;;;;4.40;3.10;;;;;;;;;;5092789;28;20229;-71
2021/04/04 03:06:33;;;;;;;12.27;5.03;;;;;;;;;;5093090;28;20230;-71
2021/04/04 03:08:59;;;;;;;6.50;3.40;;;;;;;;;;5092934;28;20194;-71
2021/04/04 03:11:26;;;;;;;6.00;3.25;;;;;;;;;;5092572;28;20198;-71
2021/04/04 03:13:53;;;;;;;5.03;2.83;;;;;;;;;;5093640;28;20187;-71
2021/04/04 03:16:19;;;;;;;12.13;2.75;;;;;;;;;;5092459;28;20212;-71
2021/04/04 03:18:47;;;;;;;12.73;3.53;;;;;;;;;;5092502;28;20195;-72
2021/04/04 03:21:14;;;;;;;4.70;2.50;;;;;;;;;;5092891;28;20244;-71
2021/04/04 03:23:40;;;;;;;4.45;2.50;;;;;;;;;;5092777;28;20196;-71
2021/04/04 03:26:07;;;;;;;4.03;2.95;;;;;;;;;;5092537;28;20218;-71
2021/04/04 03:28:34;;;;;;;7.88;3.53;;;;;;;;;;5092750;28;20238;-71
2021/04/04 03:31:01;;;;;;;5.72;2.40;;;;;;;;;;5092521;28;20272;-71
2021/04/04 03:33:27;;;;;;;5.85;3.00;;;;;;;;;;5092871;28;20519;-72
2021/04/04 03:35:53;;;;;;;7.45;4.25;;;;;;;;;;5092126;28;20275;-71
2021/04/04 03:38:20;;;;;;;7.55;2.75;;;;;;;;;;5092221;28;20213;-71
2021/04/04 03:40:47;;;;;;;5.78;3.10;;;;;;;;;;5092584;28;20637;-71
2021/04/04 03:43:15;;;;;;;4.07;2.75;;;;;;;;;;5093076;28;20213;-71
2021/04/04 03:45:42;;;;;;;4.10;3.70;;;;;;;;;;5092192;28;20200;-71
2021/04/04 03:48:09;;;;;;;6.53;3.20;;;;;;;;;;5092273;28;20291;-71
2021/04/04 03:50:36;;;;;;;3.88;2.85;;;;;;;;;;5092790;28;20672;-71
2021/04/04 03:53:02;;;;;;;3.63;3.33;;;;;;;;;;5092305;28;20266;-70
2021/04/04 03:55:29;;;;;;;5.78;2.75;;;;;;;;;;5092526;28;20188;-71
2021/04/04 03:57:55;;;;;;;4.70;3.08;;;;;;;;;;5092520;28;20196;-71
2021/04/04 04:00:22;;;;;;;4.45;3.13;;;;;;;;;;5092187;28;20185;-71
2021/04/04 04:02:50;;;;;;;4.72;2.90;;;;;;;;;;5092878;28;20612;-71
2021/04/04 04:05:16;;;;;;;5.45;3.67;;;;;;;;;;5091895;28;20220;-71
2021/04/04 04:07:42;;;;;;;6.05;2.75;;;;;;;;;;5092500;28;20243;-71
2021/04/04 04:10:09;;;;;;;7.38;3.72;;;;;;;;;;5094387;28;20273;-70
2021/04/04 04:12:35;;;;;;;5.00;3.42;;;;;;;;;;5096653;28;20204;-71
2021/04/04 04:15:02;;;;;;;5.30;3.25;;;;;;;;;;5096241;28;20622;-71
2021/04/04 04:17:28;;;;;;;7.82;3.13;;;;;;;;;;5096387;28;20220;-71
2021/04/04 04:19:56;;;;;;;5.85;3.25;;;;;;;;;;5095656;28;20291;-71
2021/04/04 04:22:22;;;;;;;6.28;3.30;;;;;;;;;;5095268;28;20211;-71
2021/04/04 04:24:49;;;;;;;4.78;3.50;;;;;;;;;;5096082;28;20204;-71
2021/04/04 04:27:16;;;;;;;3.47;2.35;;;;;;;;;;5095202;28;20222;-72
2021/04/04 04:29:43;;;;;;;8.18;3.65;;;;;;;;;;5095374;28;20196;-72
2021/04/04 04:32:09;;;;;;;4.97;2.80;;;;;;;;;;5095599;28;20237;-71
2021/04/04 04:34:36;;;;;;;5.55;3.05;;;;;;;;;;5095558;28;20201;-71
2021/04/04 04:37:02;;;;;;;6.00;2.83;;;;;;;;;;5095092;28;20576;-71
2021/04/04 04:39:29;;;;;;;6.15;2.92;;;;;;;;;;5095455;28;20295;-71
2021/04/04 04:41:55;;;;;;;3.15;2.60;;;;;;;;;;5095655;28;20208;-71
2021/04/04 04:44:24;;;;;;;5.07;3.50;;;;;;;;;;5095362;28;20199;-71
2021/04/04 04:46:50;;;;;;;6.85;3.42;;;;;;;;;;5095058;28;20220;-71
2021/04/04 04:49:17;;;;;;;6.40;2.90;;;;;;;;;;5095954;28;20610;-71
2021/04/04 04:51:45;;;;;;;5.47;3.90;;;;;;;;;;5095348;28;20554;-71
2021/04/04 04:54:12;;;;;;;11.32;2.92;;;;;;;;;;5095212;28;20199;-71
2021/04/04 04:56:39;;;;;;;6.20;3.35;;;;;;;;;;5094955;28;20180;-71
2021/04/04 04:59:06;;;;;;;8.68;3.35;;;;;;;;;;5095292;28;20208;-71
2021/04/04 05:01:36;;;;;;;8.15;3.78;;;;;;;;;;5095499;28;20239;-71
2021/04/04 05:04:02;;;;;;;6.05;2.85;;;;;;;;;;5095053;28;20177;-71
2021/04/04 05:06:29;;;;;;;4.80;3.95;;;;;;;;;;5095059;28;20245;-71
2021/04/04 05:08:55;;;;;;;4.78;3.00;;;;;;;;;;5095541;28;20208;-71
2021/04/04 05:11:23;;;;;;;9.13;4.20;;;;;;;;;;5095336;28;20212;-71
2021/04/04 05:13:49;;;;;;;6.93;2.80;;;;;;;;;;5095253;28;20549;-71
2021/04/04 05:16:16;;;;;;;4.18;2.50;;;;;;;;;;5094755;28;20257;-70
2021/04/04 05:18:46;;;;;;;3.95;3.13;;;;;;;;;;5094614;28;20200;-70
2021/04/04 05:21:12;;;;;;;4.40;2.88;;;;;;;;;;5094740;28;20192;-70
2021/04/04 05:23:38;;;;;;;4.35;2.85;;;;;;;;;;5093823;28;20197;-70
2021/04/04 05:26:04;;;;;;;8.05;4.00;;;;;;;;;;5082951;28;20220;-70
2021/04/04 05:28:33;;;;;;;4.13;3.30;;;;;;;;;;5094746;28;20193;-71
2021/04/04 05:31:03;;;;;;;3.65;2.70;;;;;;;;;;5094474;28;20206;-71
2021/04/04 05:33:30;;;;;;;4.35;2.85;;;;;;;;;;5094678;28;20596;-71
2021/04/04 05:35:55;;;;;;;3.80;3.20;;;;;;;;;;5094033;28;20233;-72
2021/04/04 05:38:21;;;;;;;10.40;3.35;;;;;;;;;;5094849;28;20201;-71
2021/04/04 05:40:48;;;;;;;3.30;2.20;;;;;;;;;;5094423;28;20688;-71
2021/04/04 05:43:14;;;;;;;10.77;3.95;;;;;;;;;;5094082;28;20558;-71
2021/04/04 05:45:45;;;;;;;3.42;2.30;;;;;;;;;;5093990;28;20709;-70
2021/04/04 05:48:15;;;;;;;5.68;3.78;;;;;;;;;;5093680;28;20227;-71
2021/04/04 05:50:55;;;;;;;5.45;3.95;;;;;;;;;;5093985;28;20196;-71
2021/04/04 05:53:25;;;;;;;6.53;4.20;;;;;;;;;;5093397;28;20279;-70
2021/04/04 05:55:56;;;;;;;6.80;4.03;;;;;;;;;;5093578;28;20200;-73
2021/04/04 05:58:26;;;;;;;7.32;4.10;;;;;;;;;;5094057;28;20204;-70
2021/04/04 06:00:54;;;;;;;7.72;3.33;;;;;;;;;;5093917;28;20195;-69
2021/04/04 06:03:46;;;;;;;3.70;3.40;;;;;;;;;;5093440;28;20236;-70
2021/04/04 06:06:27;;;;;;;6.80;3.85;;;;;;;;;;5093479;28;20257;-71
2021/04/04 06:09:09;;;;;;;5.63;3.95;;;;;;;;;;5093300;28;20235;-72
2021/04/04 06:11:47;;;;;;;5.10;3.33;;;;;;;;;;5093680;28;20627;-71
2021/04/04 06:14:18;;;;;;;4.10;3.38;;;;;;;;;;5093526;28;20200;-71
2021/04/04 06:16:49;;;;;;;4.25;3.85;;;;;;;;;;5093358;28;20205;-70
2021/04/04 06:19:21;;;;;;;3.25;2.95;;;;;;;;;;5093876;28;20751;-70
2021/04/04 06:21:52;;;;;;;4.63;3.65;;;;;;;;;;5093800;28;20614;-71
2021/04/04 06:24:27;;;;;;;6.45;3.80;;;;;;;;;;5093840;28;20212;-70
2021/04/04 06:26:56;;;;;;;6.75;3.40;;;;;;;;;;5093363;28;20206;-69
2021/04/04 06:29:26;;;;;;;8.70;4.18;;;;;;;;;;5093634;28;20203;-71
2021/04/04 06:31:59;;;;;;;7.25;4.53;;;;;;;;;;5092770;28;20200;-71
2021/04/04 06:34:30;;;;;;;12.63;3.78;;;;;;;;;;5093675;28;20965;-69
2021/04/04 06:37:00;;;;;;;19.45;3.80;;;;;;;;;;5093097;28;20262;-70
2021/04/04 06:39:35;;;;;;;4.10;3.22;;;;;;;;;;5093444;28;20208;-71
2021/04/04 06:42:10;;;;;;;7.82;3.92;;;;;;;;;;5093308;28;20590;-71
2021/04/04 06:44:44;;;;;;;9.25;3.80;;;;;;;;;;5093453;28;20206;-70
2021/04/04 06:47:20;;;;;;;6.50;3.47;;;;;;;;;;5092761;28;20660;-70
2021/04/04 06:49:50;;;;;;;5.30;3.60;;;;;;;;;;5092813;28;20217;-71
2021/04/04 06:52:27;;;;;;;6.18;3.92;;;;;;;;;;5092892;28;20209;-70
2021/04/04 06:54:59;;;;;;;5.63;3.03;;;;;;;;;;5092586;28;20191;-71
2021/04/04 06:57:34;;;;;;;4.38;3.97;;;;;;;;;;5092952;28;20674;-70
2021/04/04 07:00:04;;;;;;;7.72;3.97;;;;;;;;;;5092716;28;20207;-70
2021/04/04 07:02:33;;;;;;;8.52;4.68;;;;;;;;;;5092497;28;20329;-70
2021/04/04 07:05:02;;;;;;;6.95;4.25;;;;;;;;;;5092380;28;20234;-70
2021/04/04 07:07:41;;;;;;;7.65;4.38;;;;;;;;;;5092738;28;20680;-70
2021/04/04 07:10:28;;;;;;;6.47;4.18;;;;;;;;;;5092559;28;20192;-70
2021/04/04 07:13:09;;;;;;;11.32;5.55;;;;;;;;;;5092732;28;20184;-69
2021/04/04 07:15:40;;;;;;;13.98;6.40;;;;;;;;;;5079130;28;20627;-70
2021/04/04 07:18:15;;;;;;;14.48;5.25;;;;;;;;;;5092001;28;20239;-70
2021/04/04 07:20:51;;;;;;;8.43;4.80;;;;;;;;;;5092185;28;20260;-71
2021/04/04 07:23:34;;;;;;;10.18;4.68;;;;;;;;;;5092391;28;20199;-70
2021/04/04 07:26:02;;;;;;;9.60;5.45;;;;;;;;;;5092693;28;20224;-70
2021/04/04 07:28:55;;;;;;;8.73;5.65;;;;;;;;;;5092427;28;20237;-70
2021/04/04 07:31:25;;;;;;;8.32;5.00;;;;;;;;;;5055960;28;20200;-71
2021/04/04 07:33:54;;;;;;;7.28;4.65;;;;;;;;;;5092386;28;20218;-71
2021/04/04 07:36:24;;;;;;;16.35;4.65;;;;;;;;;;5092119;28;20235;-71
2021/04/04 07:38:55;;;;;;;11.55;4.63;;;;;;;;;;5092220;28;20641;-71
2021/04/04 07:41:24;;;;;;;9.57;6.20;;;;;;;;;;5089559;28;20195;-70
2021/04/04 07:43:57;;;;;;;8.20;4.65;;;;;;;;;;5088872;28;20557;-70
2021/04/04 07:46:26;;;;;;;7.38;5.70;;;;;;;;;;5083068;28;20299;-70
2021/04/04 07:49:02;;;;;;;16.55;6.28;;;;;;;;;;5095507;28;20192;-71
2021/04/04 07:51:30;;;;;;;13.25;7.13;;;;;;;;;;5096396;28;20222;-71
2021/04/04 07:54:00;;;;;;;12.57;6.05;;;;;;;;;;5095801;28;20206;-70
2021/04/04 07:56:29;;;;;;;9.95;5.25;;;;;;;;;;5095575;28;20207;-71
2021/04/04 07:58:57;;;;;;;7.88;4.60;;;;;;;;;;5095960;28;20191;-70
2021/04/04 08:01:25;;;;;;;12.20;4.70;;;;;;;;;;5095527;28;20188;-72
2021/04/04 08:03:56;;;;;;;13.25;4.70;;;;;;;;;;5095522;28;20204;-70
2021/04/04 08:06:26;;;;;;;8.77;5.25;;;;;;;;;;5095591;28;20268;-70
2021/04/04 08:08:56;;;;;;;7.43;5.85;;;;;;;;;;5095544;28;20204;-70
2021/04/04 08:11:24;;;;;;;9.55;6.28;;;;;;;;;;5095616;28;20224;-71
2021/04/04 08:13:57;;;;;;;11.90;5.55;;;;;;;;;;5095894;28;20211;-71
2021/04/04 08:16:28;;;;;;;7.90;3.95;;;;;;;;;;5095634;28;20197;-70
2021/04/04 08:18:55;;;;;;;12.07;4.82;;;;;;;;;;5095575;28;20197;-70
2021/04/04 08:21:22;;;;;;;11.45;4.60;;;;;;;;;;5095374;28;20205;-71
2021/04/04 08:23:52;;;;;;;13.65;5.78;;;;;;;;;;5095165;28;20201;-70
2021/04/04 08:26:23;;;;;;;5.18;3.70;;;;;;;;;;5095243;28;20216;-71
2021/04/04 08:28:53;;;;;;;12.95;6.20;;;;;;;;;;5095490;28;20662;-71
2021/04/04 08:31:21;;;;;;;9.68;4.38;;;;;;;;;;5095645;28;20680;-71
2021/04/04 08:33:50;;;;;;;9.00;5.45;;;;;;;;;;5095581;28;20632;-70
2021/04/04 08:36:18;;;;;;;9.73;5.05;;;;;;;;;;5094295;28;20307;-71
2021/04/04 08:38:46;;;;;;;10.20;4.80;;;;;;;;;;5094740;28;20616;-71
2021/04/04 08:41:14;;;;;;;10.43;5.10;;;;;;;;;;5095001;28;20223;-70
2021/04/04 08:43:43;;;;;;;11.50;4.47;;;;;;;;;;5093498;28;20275;-71
2021/04/04 08:46:14;;;;;;;8.98;4.05;;;;;;;;;;5092022;28;20263;-70
2021/04/04 08:48:40;;;;;;;10.57;4.65;;;;;;;;;;5091809;28;20198;-69
2021/04/04 08:51:10;;;;;;;9.15;5.00;;;;;;;;;;5091749;28;20241;-71
2021/04/04 08:53:38;;;;;;;11.93;4.47;;;;;;;;;;5094157;28;20226;-70
2021/04/04 08:56:05;;;;;;;9.43;4.10;;;;;;;;;;5094246;28;20286;-71
2021/04/04 08:58:34;;;;;;;7.95;4.72;;;;;;;;;;5094754;28;20203;-71
2021/04/04 09:01:03;;;;;;;8.77;4.68;;;;;;;;;;5095061;28;20207;-71
2021/04/04 09:03:30;;;;;;;14.70;7.07;;;;;;;;;;5095048;28;20211;-71
2021/04/04 09:06:00;;;;;;;12.00;4.68;;;;;;;;;;5095013;28;20694;-71
2021/04/04 09:08:26;;;;;;;10.20;4.80;;;;;;;;;;5095442;28;20204;-71
2021/04/04 09:10:52;;;;;;;12.40;4.63;;;;;;;;;;5094846;28;20303;-71
2021/04/04 09:13:19;;;;;;;6.90;4.22;;;;;;;;;;5094134;28;20804;-72
2021/04/04 09:15:49;;;;;;;12.88;4.63;;;;;;;;;;5094451;28;20230;-71
2021/04/04 09:18:16;;;;;;;10.70;4.93;;;;;;;;;;5094952;28;20207;-71
2021/04/04 09:20:44;;;;;;;20.80;5.30;;;;;;;;;;5094389;28;20204;-71
2021/04/04 09:23:10;;;;;;;13.00;4.60;;;;;;;;;;5094634;28;20242;-71
2021/04/04 09:25:37;;;;;;;12.10;5.30;;;;;;;;;;5094340;28;20195;-70
2021/04/04 09:28:06;;;;;;;15.43;4.75;;;;;;;;;;5094213;28;20265;-71
2021/04/04 09:30:35;;;;;;;8.27;4.63;;;;;;;;;;5093411;28;20283;-73
2021/04/04 09:33:04;;;;;;;6.63;4.05;;;;;;;;;;5094465;28;20559;-72
2021/04/04 09:35:34;;;;;;;9.13;4.25;;;;;;;;;;5093740;28;20250;-71
2021/04/04 09:38:01;;;;;;;8.30;4.63;;;;;;;;;;5093697;28;20199;-71
2021/04/04 09:40:28;;;;;;;9.07;4.63;;;;;;;;;;5093866;28;20196;-71
2021/04/04 09:42:55;;;;;;;9.60;4.35;;;;;;;;;;5093904;28;20726;-70
2021/04/04 09:45:22;;;;;;;8.25;4.03;;;;;;;;;;5093346;28;20188;-70
2021/04/04 09:47:50;;;;;;;7.00;4.82;;;;;;;;;;5093502;28;20211;-72
2021/04/04 09:50:21;;;;;;;9.05;4.25;;;;;;;;;;5093029;28;20231;-71
2021/04/04 09:52:47;;;;;;;11.73;4.65;;;;;;;;;;5093299;28;20192;-72
2021/04/04 09:55:14;;;;;;;8.50;4.72;;;;;;;;;;5093332;28;20192;-72
2021/04/04 09:57:41;;;;;;;9.10;4.18;;;;;;;;;;5093604;28;20638;-72
2021/04/04 10:00:18;;;;;;;7.78;4.43;;;;;;;;;;5093567;28;20290;-72
2021/04/04 10:02:44;;;;;;;5.60;3.42;;;;;;;;;;5093825;28;20575;-71
2021/04/04 10:05:10;;;;;;;8.93;4.40;;;;;;;;;;5085592;28;20196;-71
2021/04/04 10:07:38;;;;;;;10.85;4.70;;;;;;;;;;5081621;28;20639;-72
2021/04/04 10:10:05;;;;;;;9.63;4.93;;;;;;;;;;5078351;28;20283;-71
2021/04/04 10:12:34;;;;;;;7.88;4.22;;;;;;;;;;5073394;28;20568;-71
2021/04/04 10:15:01;;;;;;;7.75;4.30;;;;;;;;;;5079114;28;20208;-70
2021/04/04 10:17:27;;;;;;;6.60;3.40;;;;;;;;;;5087177;28;20184;-71
2021/04/04 10:19:54;;;;;;;11.93;5.00;;;;;;;;;;5092762;28;20207;-71
2021/04/04 10:22:20;;;;;;;11.13;4.30;;;;;;;;;;5093595;28;20639;-72
2021/04/04 10:24:47;;;;;;;9.00;4.00;;;;;;;;;;5093401;28;20204;-71
2021/04/04 10:27:25;;;;;;;8.32;4.60;;;;;;;;;;5078479;28;20205;-71
2021/04/04 10:30:04;;;;;;;13.65;3.72;;;;;;;;;;5074656;28;20203;-72
2021/04/04 10:32:30;;;;;;;8.30;4.43;;;;;;;;;;5092796;28;20534;-71
2021/04/04 10:34:57;;;;;;;13.77;4.32;;;;;;;;;;5092773;28;20207;-71
2021/04/04 10:37:25;;;;;;;7.53;4.03;;;;;;;;;;5092803;28;20224;-71
2021/04/04 10:39:58;;;;;;;7.10;3.88;;;;;;;;;;5093434;28;20201;-70
2021/04/04 10:42:25;;;;;;;8.63;4.60;;;;;;;;;;5092704;28;20595;-70
2021/04/04 10:45:06;;;;;;;7.82;4.03;;;;;;;;;;5081514;28;20224;-70
2021/04/04 10:47:32;;;;;;;7.53;4.50;;;;;;;;;;5086942;28;20233;-71
2021/04/04 10:49:58;;;;;;;10.20;4.50;;;;;;;;;;5092467;28;20207;-71
2021/04/04 10:52:25;;;;;;;10.45;5.28;;;;;;;;;;5092846;28;20527;-71
2021/04/04 10:54:51;;;;;;;10.15;4.85;;;;;;;;;;5092925;28;20200;-70
2021/04/04 10:57:18;;;;;;;9.90;4.30;;;;;;;;;;5092707;28;20206;-69
2021/04/04 10:59:44;;;;;;;8.52;4.15;;;;;;;;;;5078783;28;20223;-71
2021/04/04 11:02:11;;;;;;;9.95;4.40;;;;;;;;;;5073403;28;20948;-71
2021/04/04 11:04:38;;;;;;;9.15;4.97;;;;;;;;;;5075914;28;20904;-70
2021/04/04 11:07:04;;;;;;;7.35;4.57;;;;;;;;;;5080272;28;20270;-71
2021/04/04 11:09:30;;;;;;;9.15;4.07;;;;;;;;;;5079172;28;20627;-71
2021/04/04 11:12:00;;;;;;;9.68;5.18;;;;;;;;;;5073034;28;20242;-71
2021/04/04 11:14:28;;;;;;;8.93;4.28;;;;;;;;;;5072256;28;20208;-71
2021/04/04 11:16:56;;;;;;;13.32;5.00;;;;;;;;;;5072235;28;20186;-71
2021/04/04 11:19:24;;;;;;;7.93;4.53;;;;;;;;;;5091955;28;20199;-70
2021/04/04 11:21:51;;;;;;;14.45;4.63;;;;;;;;;;5072137;28;20209;-71
2021/04/04 11:24:19;;;;;;;7.57;3.97;;;;;;;;;;5072285;28;20208;-72
2021/04/04 11:26:48;;;;;;;10.48;4.53;;;;;;;;;;5074497;28;20252;-71
2021/04/04 11:29:15;;;;;;;7.75;4.93;;;;;;;;;;5075232;28;20181;-71
2021/04/04 11:31:43;;;;;;;6.78;4.03;;;;;;;;;;5080592;28;20562;-71
2021/04/04 11:34:21;;;;;;;6.40;3.90;;;;;;;;;;5086994;28;20204;-70
2021/04/04 11:36:47;;;;;;;8.13;4.85;;;;;;;;;;5071887;28;20696;-70
2021/04/04 11:39:13;;;;;;;10.30;4.70;;;;;;;;;;5072074;28;20181;-72
2021/04/04 11:41:45;;;;;;;8.80;5.18;;;;;;;;;;5071763;28;20291;-71
2021/04/04 11:44:16;;;;;;;8.15;4.00;;;;;;;;;;5071864;28;20216;-70
2021/04/04 11:46:45;;;;;;;6.65;4.25;;;;;;;;;;5085431;28;20217;-71
2021/04/04 11:49:26;;;;;;;6.10;4.15;;;;;;;;;;5087804;28;20610;-71
2021/04/04 11:51:52;;;;;;;6.88;4.10;;;;;;;;;;5072169;28;20196;-72
2021/04/04 11:54:48;;;;;;;9.30;4.38;;;;;;;;;;5091755;28;20200;-70
2021/04/04 11:57:17;;;;;;;6.00;3.50;;;;;;;;;;5072146;28;20200;-71
2021/04/04 11:59:43;;;;;;;5.32;4.30;;;;;;;;;;5071757;28;20196;-72
2021/04/04 12:02:12;;;;;;;8.00;4.00;;;;;;;;;;5078002;28;20204;-70
2021/04/04 12:04:45;;;;;;;8.75;3.97;;;;;;;;;;5091796;28;20180;-71
2021/04/04 12:07:13;;;;;;;7.45;4.07;;;;;;;;;;5091369;28;20200;-71
2021/04/04 12:09:39;;;;;;;8.20;4.00;;;;;;;;;;5091802;28;20220;-70
2021/04/04 12:12:06;;;;;;;10.38;4.10;;;;;;;;;;5078512;28;20232;-71
2021/04/04 12:14:32;;;;;;;12.13;4.43;;;;;;;;;;5071440;28;20211;-72
2021/04/04 12:16:58;;;;;;;5.40;4.10;;;;;;;;;;5071703;28;20586;-71
2021/04/04 12:19:26;;;;;;;7.68;4.72;;;;;;;;;;5077213;28;20546;-73
2021/04/04 12:21:53;;;;;;;6.82;4.40;;;;;;;;;;5087667;28;20225;-70
2021/04/04 12:24:19;;;;;;;9.02;4.10;;;;;;;;;;5071410;28;20687;-72
2021/04/04 12:26:45;;;;;;;8.07;4.75;;;;;;;;;;5088926;28;20555;-72
2021/04/04 12:29:12;;;;;;;8.98;4.25;;;;;;;;;;5091855;28;20246;-71
2021/04/04 12:31:39;;;;;;;6.00;4.32;;;;;;;;;;5094589;28;20545;-72
2021/04/04 12:34:05;;;;;;;9.82;3.95;;;;;;;;;;5095261;28;20261;-71
2021/04/04 12:36:32;;;;;;;5.15;3.80;;;;;;;;;;5094624;28;20231;-72
2021/04/04 12:39:00;;;;;;;8.10;3.75;;;;;;;;;;5075031;28;20252;-70
2021/04/04 12:41:26;;;;;;;9.23;3.92;;;;;;;;;;5075251;28;20532;-70
2021/04/04 12:43:52;;;;;;;7.78;3.70;;;;;;;;;;5076141;28;20201;-71
2021/04/04 12:46:19;;;;;;;6.20;4.05;;;;;;;;;;5083496;28;20252;-71
2021/04/04 12:48:45;;;;;;;10.70;4.00;;;;;;;;;;5074651;28;20247;-71
2021/04/04 12:51:13;;;;;;;9.63;4.30;;;;;;;;;;5074824;28;20240;-71
2021/04/04 12:53:41;;;;;;;8.90;3.63;;;;;;;;;;5074708;28;20231;-71
2021/04/04 12:56:07;;;;;;;5.22;4.22;;;;;;;;;;5088151;28;20197;-78
2021/04/04 12:58:34;;;;;;;5.88;3.53;;;;;;;;;;5094440;28;20242;-70
2021/04/04 13:01:01;;;;;;;10.00;4.45;;;;;;;;;;5094958;28;20199;-69
2021/04/04 13:03:31;;;;;;;6.00;3.88;;;;;;;;;;5094762;28;20202;-70
2021/04/04 13:05:57;;;;;;;10.48;4.55;;;;;;;;;;5094901;28;20194;-70
2021/04/04 13:08:27;;;;;;;9.68;4.15;;;;;;;;;;5095398;28;20199;-71
2021/04/04 13:10:56;;;;;;;6.93;3.70;;;;;;;;;;5094793;28;20266;-71
2021/04/04 13:13:23;;;;;;;7.43;3.63;;;;;;;;;;5094643;28;20200;-69
2021/04/04 13:15:49;;;;;;;7.40;4.18;;;;;;;;;;5094644;28;20204;-69
2021/04/04 13:18:25;;;;;;;6.60;3.83;;;;;;;;;;5094710;28;20224;-70
2021/04/04 13:20:52;;;;;;;8.48;4.35;;;;;;;;;;5094349;28;20195;-70
2021/04/04 13:23:18;;;;;;;6.00;3.35;;;;;;;;;;5094795;28;20703;-70
2021/04/04 13:25:44;;;;;;;9.27;3.78;;;;;;;;;;5094256;28;20204;-72
2021/04/04 13:28:11;;;;;;;6.57;3.63;;;;;;;;;;5094157;28;20219;-72
2021/04/04 13:30:38;;;;;;;6.50;3.90;;;;;;;;;;5094205;28;20233;-73
2021/04/04 13:33:06;;;;;;;7.15;3.58;;;;;;;;;;5094595;28;20207;-72
2021/04/04 13:35:33;;;;;;;9.30;3.67;;;;;;;;;;5094327;28;20200;-73
2021/04/04 13:38:00;;;;;;;10.80;4.20;;;;;;;;;;5094141;28;20187;-71
2021/04/04 13:40:27;;;;;;;10.48;4.00;;;;;;;;;;5094039;28;20203;-72
2021/04/04 13:42:54;;;;;;;11.52;3.85;;;;;;;;;;5092653;28;20533;-72
2021/04/04 13:45:34;;;;;;;8.80;4.07;;;;;;;;;;5093601;28;20211;-71
2021/04/04 13:48:00;;;;;;;4.95;3.88;;;;;;;;;;5093411;28;20286;-72
2021/04/04 13:50:36;;;;;;;6.30;3.13;;;;;;;;;;5093107;28;20196;-71
2021/04/04 13:53:14;;;;;;;6.63;4.05;;;;;;;;;;5093519;28;20218;-71
2021/04/04 13:55:40;;;;;;;8.05;3.53;;;;;;;;;;5093465;28;20223;-72
2021/04/04 13:58:06;;;;;;;5.80;3.35;;;;;;;;;;5093554;28;20283;-72
2021/04/04 14:00:42;;;;;;;4.47;3.43;;;;;;;;;;5093344;28;20189;-71
2021/04/04 14:03:09;;;;;;;11.95;4.43;;;;;;;;;;5093368;28;20454;-70
2021/04/04 14:05:35;;;;;;;7.28;3.72;;;;;;;;;;5092937;28;20224;-71
2021/04/04 14:08:04;;;;;;;9.82;4.75;;;;;;;;;;5093193;28;20258;-71
2021/04/04 14:10:30;;;;;;;8.93;3.75;;;;;;;;;;5093062;28;20200;-70
2021/04/04 14:12:56;;;;;;;10.25;3.75;;;;;;;;;;5093026;28;20607;-70
2021/04/04 14:15:23;;;;;;;8.90;4.10;;;;;;;;;;5093252;28;20205;-71
2021/04/04 14:17:50;;;;;;;9.07;4.35;;;;;;;;;;5093908;28;20204;-70
2021/04/04 14:20:16;;;;;;;5.70;3.45;;;;;;;;;;5093796;28;20295;-70
2021/04/04 14:22:43;;;;;;;8.68;4.25;;;;;;;;;;5093032;28;20196;-71
2021/04/04 14:25:09;;;;;;;5.05;4.03;;;;;;;;;;5093039;28;20213;-71
2021/04/04 14:27:35;;;;;;;7.23;3.60;;;;;;;;;;5093288;28;20223;-71
2021/04/04 14:30:02;;;;;;;7.10;3.73;;;;;;;;;;5092362;28;20468;-70
2021/04/04 14:32:28;;;;;;;14.23;4.73;;;;;;;;;;5093314;28;20615;-72
2021/04/04 14:34:55;;;;;;;12.07;4.50;;;;;;;;;;5093531;28;20457;-71
2021/04/04 14:37:21;;;;;;;5.22;3.85;;;;;;;;;;5093094;28;20241;-71
2021/04/04 14:39:50;;;;;;;8.63;3.97;;;;;;;;;;5093141;28;20202;-71
2021/04/04 14:42:16;;;;;;;8.83;3.80;;;;;;;;;;5092893;28;20203;-72
2021/04/04 14:44:42;;;;;;;10.53;4.10;;;;;;;;;;5092571;28;20446;-70
2021/04/04 14:47:08;;;;;;;8.40;4.13;;;;;;;;;;5092630;28;20477;-72
2021/04/04 14:49:34;;;;;;;10.27;5.97;;;;;;;;;;5093272;28;20584;-69